sensor_id;sensor_type;location;lat;lon;timestamp;pressure;altitude;pressure_sealevel;temperature;humidity
27425;BME280;15244;49.088;11.886;2022-10-15T00:03:08;95313.06;;;16.75;58.78
27425;BME280;15244;49.088;11.886;2022-10-15T00:08:10;95311.53;;;16.74;58.84
27425;BME280;15244;49.088;11.886;2022-10-15T00:13:12;95306.97;;;16.67;59.13
27425;BME280;15244;49.088;11.886;2022-10-15T00:18:14;95309.50;;;16.61;59.03
27425;BME280;15244;49.088;11.886;2022-10-15T00:23:15;95298.56;;;16.58;59.10
27425;BME280;15244;49.088;11.886;2022-10-15T00:28:17;95298.22;;;16.56;59.29
27425;BME280;15244;49.088;11.886;2022-10-15T00:33:19;95300.63;;;16.54;59.45
27425;BME280;15244;49.088;11.886;2022-10-15T00:38:23;95297.53;;;16.52;59.33
27425;BME280;15244;49.088;11.886;2022-10-15T00:43:57;95293.22;;;16.51;59.38
27425;BME280;15244;49.088;11.886;2022-10-15T00:49:22;95295.75;;;16.45;59.43
27425;BME280;15244;49.088;11.886;2022-10-15T00:54:26;95282.84;;;16.42;59.68
27425;BME280;15244;49.088;11.886;2022-10-15T00:59:35;95274.19;;;16.43;59.73
27425;BME280;15244;49.088;11.886;2022-10-15T01:04:40;95274.94;;;16.44;59.73
27425;BME280;15244;49.088;11.886;2022-10-15T01:09:42;95268.22;;;16.45;59.74
27425;BME280;15244;49.088;11.886;2022-10-15T01:20:42;95264.72;;;16.44;59.70
27425;BME280;15244;49.088;11.886;2022-10-15T01:36:51;95237.97;;;16.45;59.83
27425;BME280;15244;49.088;11.886;2022-10-15T01:47:18;95221.38;;;16.49;59.88
27425;BME280;15244;49.088;11.886;2022-10-15T01:52:25;95213.88;;;16.49;59.81
27425;BME280;15244;49.088;11.886;2022-10-15T01:57:29;95212.66;;;16.50;59.91
27425;BME280;15244;49.088;11.886;2022-10-15T02:02:33;95212.44;;;16.44;59.99
27425;BME280;15244;49.088;11.886;2022-10-15T02:13:16;95188.09;;;16.43;60.25
27425;BME280;15244;49.088;11.886;2022-10-15T02:18:47;95190.84;;;16.43;60.25
27425;BME280;15244;49.088;11.886;2022-10-15T02:29:07;95186.44;;;16.45;60.48
27425;BME280;15244;49.088;11.886;2022-10-15T02:34:16;95183.63;;;16.49;60.21
27425;BME280;15244;49.088;11.886;2022-10-15T02:39:21;95172.94;;;16.51;60.29
27425;BME280;15244;49.088;11.886;2022-10-15T02:44:24;95177.66;;;16.51;60.18
27425;BME280;15244;49.088;11.886;2022-10-15T02:49:26;95171.72;;;16.52;60.37
27425;BME280;15244;49.088;11.886;2022-10-15T02:54:28;95172.84;;;16.55;60.46
27425;BME280;15244;49.088;11.886;2022-10-15T02:59:33;95168.88;;;16.56;60.26
27425;BME280;15244;49.088;11.886;2022-10-15T03:04:35;95162.19;;;16.57;60.34
27425;BME280;15244;49.088;11.886;2022-10-15T03:09:37;95167.22;;;16.58;60.29
27425;BME280;15244;49.088;11.886;2022-10-15T03:14:39;95166.38;;;16.61;60.23
27425;BME280;15244;49.088;11.886;2022-10-15T03:19:45;95161.97;;;16.64;60.11
27425;BME280;15244;49.088;11.886;2022-10-15T03:24:47;95154.25;;;16.59;60.58
27425;BME280;15244;49.088;11.886;2022-10-15T03:29:53;95139.72;;;16.58;60.42
27425;BME280;15244;49.088;11.886;2022-10-15T03:34:56;95146.09;;;16.55;60.35
27425;BME280;15244;49.088;11.886;2022-10-15T03:39:58;95142.91;;;16.57;60.34
27425;BME280;15244;49.088;11.886;2022-10-15T03:45:01;95145.66;;;16.57;60.28
27425;BME280;15244;49.088;11.886;2022-10-15T03:50:03;95147.19;;;16.58;60.09
27425;BME280;15244;49.088;11.886;2022-10-15T03:55:06;95138.94;;;16.58;60.29
27425;BME280;15244;49.088;11.886;2022-10-15T04:00:11;95144.78;;;16.60;60.19
27425;BME280;15244;49.088;11.886;2022-10-15T04:05:13;95133.78;;;16.60;60.32
27425;BME280;15244;49.088;11.886;2022-10-15T04:10:22;95140.06;;;16.60;60.07
27425;BME280;15244;49.088;11.886;2022-10-15T04:15:24;95135.31;;;16.61;60.36
27425;BME280;15244;49.088;11.886;2022-10-15T04:20:32;95129.81;;;16.61;60.47
27425;BME280;15244;49.088;11.886;2022-10-15T04:25:44;95137.97;;;16.64;60.58
27425;BME280;15244;49.088;11.886;2022-10-15T04:30:46;95129.59;;;16.68;60.43
27425;BME280;15244;49.088;11.886;2022-10-15T04:36:03;95137.44;;;16.69;60.18
27425;BME280;15244;49.088;11.886;2022-10-15T04:41:41;95138.66;;;16.68;60.40
27425;BME280;15244;49.088;11.886;2022-10-15T04:46:48;95140.19;;;16.69;60.33
27425;BME280;15244;49.088;11.886;2022-10-15T04:52:16;95136.22;;;16.71;60.58
27425;BME280;15244;49.088;11.886;2022-10-15T04:57:28;95131.06;;;16.73;60.65
27425;BME280;15244;49.088;11.886;2022-10-15T05:02:30;95129.84;;;16.74;60.49
27425;BME280;15244;49.088;11.886;2022-10-15T05:07:52;95127.41;;;16.76;60.65
27425;BME280;15244;49.088;11.886;2022-10-15T05:12:53;95125.47;;;16.76;60.21
27425;BME280;15244;49.088;11.886;2022-10-15T05:18:03;95122.28;;;16.78;60.27
27425;BME280;15244;49.088;11.886;2022-10-15T05:23:14;95128.13;;;16.80;60.50
27425;BME280;15244;49.088;11.886;2022-10-15T05:28:23;95124.66;;;16.76;60.42
27425;BME280;15244;49.088;11.886;2022-10-15T05:33:26;95129.34;;;16.79;60.80
27425;BME280;15244;49.088;11.886;2022-10-15T05:38:28;95148.63;;;16.79;60.62
27425;BME280;15244;49.088;11.886;2022-10-15T05:43:31;95152.13;;;16.79;60.52
27425;BME280;15244;49.088;11.886;2022-10-15T05:48:40;95152.13;;;16.79;60.47
27425;BME280;15244;49.088;11.886;2022-10-15T05:53:42;95152.91;;;16.80;60.40
27425;BME280;15244;49.088;11.886;2022-10-15T05:58:46;95154.44;;;16.81;60.57
27425;BME280;15244;49.088;11.886;2022-10-15T06:03:48;95156.41;;;16.80;60.51
27425;BME280;15244;49.088;11.886;2022-10-15T06:08:51;95165.78;;;16.83;60.74
27425;BME280;15244;49.088;11.886;2022-10-15T06:13:53;95167.00;;;16.82;60.62
27425;BME280;15244;49.088;11.886;2022-10-15T06:18:54;95171.41;;;16.79;60.88
27425;BME280;15244;49.088;11.886;2022-10-15T06:23:56;95174.91;;;16.80;60.78
27425;BME280;15244;49.088;11.886;2022-10-15T06:28:58;95180.09;;;16.78;61.07
27425;BME280;15244;49.088;11.886;2022-10-15T06:33:59;95190.72;;;16.76;61.04
27425;BME280;15244;49.088;11.886;2022-10-15T06:39:01;95195.47;;;16.75;61.01
27425;BME280;15244;49.088;11.886;2022-10-15T06:44:03;95206.94;;;16.74;60.90
27425;BME280;15244;49.088;11.886;2022-10-15T06:49:04;95212.44;;;16.74;61.34
27425;BME280;15244;49.088;11.886;2022-10-15T06:54:08;95218.25;;;16.76;61.43
27425;BME280;15244;49.088;11.886;2022-10-15T06:59:10;95224.22;;;16.74;61.63
27425;BME280;15244;49.088;11.886;2022-10-15T07:04:12;95226.09;;;16.77;61.79
27425;BME280;15244;49.088;11.886;2022-10-15T07:09:13;95239.00;;;16.80;61.64
27425;BME280;15244;49.088;11.886;2022-10-15T07:14:15;95236.47;;;16.86;61.68
27425;BME280;15244;49.088;11.886;2022-10-15T07:19:17;95238.69;;;16.91;61.98
27425;BME280;15244;49.088;11.886;2022-10-15T07:24:20;95254.69;;;16.96;61.87
27425;BME280;15244;49.088;11.886;2022-10-15T07:29:22;95257.34;;;17.00;62.16
27425;BME280;15244;49.088;11.886;2022-10-15T07:34:24;95260.75;;;17.04;61.90
27425;BME280;15244;49.088;11.886;2022-10-15T07:39:26;95263.44;;;17.07;62.17
27425;BME280;15244;49.088;11.886;2022-10-15T07:44:27;95267.28;;;17.10;62.09
27425;BME280;15244;49.088;11.886;2022-10-15T07:49:29;95263.66;;;17.13;62.27
27425;BME280;15244;49.088;11.886;2022-10-15T07:54:34;95273.03;;;17.16;62.36
27425;BME280;15244;49.088;11.886;2022-10-15T07:59:36;95282.06;;;17.16;62.33
27425;BME280;15244;49.088;11.886;2022-10-15T08:04:37;95284.38;;;17.18;62.58
27425;BME280;15244;49.088;11.886;2022-10-15T08:09:39;95293.75;;;17.20;62.86
27425;BME280;15244;49.088;11.886;2022-10-15T08:14:41;95296.84;;;17.22;62.88
27425;BME280;15244;49.088;11.886;2022-10-15T08:19:42;95299.94;;;17.24;62.85
27425;BME280;15244;49.088;11.886;2022-10-15T08:24:44;95311.72;;;17.25;63.09
27425;BME280;15244;49.088;11.886;2022-10-15T08:29:45;95310.44;;;17.29;63.15
27425;BME280;15244;49.088;11.886;2022-10-15T08:34:47;95309.44;;;17.36;63.22
27425;BME280;15244;49.088;11.886;2022-10-15T08:39:49;95327.84;;;17.39;63.19
27425;BME280;15244;49.088;11.886;2022-10-15T08:44:57;95336.78;;;17.43;63.17
27425;BME280;15244;49.088;11.886;2022-10-15T08:55:19;95339.41;;;17.47;63.25
27425;BME280;15244;49.088;11.886;2022-10-15T09:00:24;95350.78;;;17.49;63.52
27425;BME280;15244;49.088;11.886;2022-10-15T09:10:46;95355.00;;;17.53;63.56
27425;BME280;15244;49.088;11.886;2022-10-15T09:15:53;95356.53;;;17.54;63.40
27425;BME280;15244;49.088;11.886;2022-10-15T09:20:56;95360.72;;;17.59;63.51
27425;BME280;15244;49.088;11.886;2022-10-15T09:26:08;95366.50;;;17.65;63.54
27425;BME280;15244;49.088;11.886;2022-10-15T09:31:20;95379.75;;;17.70;63.65
27425;BME280;15244;49.088;11.886;2022-10-15T09:46:46;95384.97;;;17.81;63.57
27425;BME280;15244;49.088;11.886;2022-10-15T09:52:01;95399.41;;;17.85;63.49
27425;BME280;15244;49.088;11.886;2022-10-15T09:57:09;95399.66;;;17.90;63.47
27425;BME280;15244;49.088;11.886;2022-10-15T10:07:34;95411.47;;;18.04;63.63
27425;BME280;15244;49.088;11.886;2022-10-15T10:12:36;95423.59;;;18.06;63.45
27425;BME280;15244;49.088;11.886;2022-10-15T10:17:38;95429.78;;;18.10;63.75
27425;BME280;15244;49.088;11.886;2022-10-15T10:22:58;95436.41;;;18.13;63.32
27425;BME280;15244;49.088;11.886;2022-10-15T10:38:35;95448.78;;;18.21;63.33
27425;BME280;15244;49.088;11.886;2022-10-15T10:43:39;95449.22;;;18.32;63.28
27425;BME280;15244;49.088;11.886;2022-10-15T10:48:51;95451.75;;;18.39;63.43
27425;BME280;15244;49.088;11.886;2022-10-15T10:54:00;95453.41;;;18.50;63.42
27425;BME280;15244;49.088;11.886;2022-10-15T11:04:32;95447.78;;;18.66;63.30
27425;BME280;15244;49.088;11.886;2022-10-15T11:14:55;95445.03;;;18.92;63.14
27425;BME280;15244;49.088;11.886;2022-10-15T11:26:03;95452.78;;;19.19;62.64
27425;BME280;15244;49.088;11.886;2022-10-15T11:58:41;95451.25;;;19.53;61.26
27425;BME280;15244;49.088;11.886;2022-10-15T12:03:52;95447.16;;;19.57;61.22
27425;BME280;15244;49.088;11.886;2022-10-15T12:08:55;95451.78;;;19.60;60.88
27425;BME280;15244;49.088;11.886;2022-10-15T12:14:06;95471.75;;;19.64;60.77
27425;BME280;15244;49.088;11.886;2022-10-15T12:19:21;95459.38;;;19.69;60.67
27425;BME280;15244;49.088;11.886;2022-10-15T12:29:51;95453.59;;;19.76;60.47
27425;BME280;15244;49.088;11.886;2022-10-15T12:35:04;95440.72;;;19.82;60.15
27425;BME280;15244;49.088;11.886;2022-10-15T12:40:33;95441.69;;;19.88;60.08
27425;BME280;15244;49.088;11.886;2022-10-15T12:45:38;95439.69;;;19.89;59.81
27425;BME280;15244;49.088;11.886;2022-10-15T12:50:41;95439.69;;;19.89;59.45
27425;BME280;15244;49.088;11.886;2022-10-15T12:55:42;95442.78;;;19.91;59.46
27425;BME280;15244;49.088;11.886;2022-10-15T13:00:44;95441.22;;;19.90;59.54
27425;BME280;15244;49.088;11.886;2022-10-15T13:05:46;95446.91;;;19.86;59.40
27425;BME280;15244;49.088;11.886;2022-10-15T13:10:57;95449.03;;;19.82;59.21
27425;BME280;15244;49.088;11.886;2022-10-15T13:16:04;95451.03;;;19.82;59.31
27425;BME280;15244;49.088;11.886;2022-10-15T13:21:07;95454.38;;;19.77;59.58
27425;BME280;15244;49.088;11.886;2022-10-15T13:26:18;95439.59;;;19.70;59.51
27425;BME280;15244;49.088;11.886;2022-10-15T13:31:27;95459.16;;;19.63;59.72
27425;BME280;15244;49.088;11.886;2022-10-15T13:36:32;95452.34;;;19.55;59.70
27425;BME280;15244;49.088;11.886;2022-10-15T13:41:36;95453.13;;;19.56;59.79
27425;BME280;15244;49.088;11.886;2022-10-15T13:46:40;95460.41;;;19.62;60.07
27425;BME280;15244;49.088;11.886;2022-10-15T13:51:45;95449.97;;;19.66;59.90
27425;BME280;15244;49.088;11.886;2022-10-15T13:56:55;95462.63;;;19.67;59.83
27425;BME280;15244;49.088;11.886;2022-10-15T14:02:01;95461.38;;;19.68;59.85
27425;BME280;15244;49.088;11.886;2022-10-15T14:07:22;95457.09;;;19.67;59.66
27425;BME280;15244;49.088;11.886;2022-10-15T14:12:25;95468.16;;;19.67;59.81
27425;BME280;15244;49.088;11.886;2022-10-15T14:17:27;95470.56;;;19.65;59.70
27425;BME280;15244;49.088;11.886;2022-10-15T14:22:29;95461.94;;;19.63;59.76
27425;BME280;15244;49.088;11.886;2022-10-15T14:27:33;95466.16;;;19.68;60.05
27425;BME280;15244;49.088;11.886;2022-10-15T14:32:46;95464.09;;;19.81;60.18
27425;BME280;15244;49.088;11.886;2022-10-15T14:37:58;95460.59;;;19.90;59.89
27425;BME280;15244;49.088;11.886;2022-10-15T14:43:06;95451.91;;;20.01;59.79
27425;BME280;15244;49.088;11.886;2022-10-15T14:48:26;95467.47;;;20.07;59.58
27425;BME280;15244;49.088;11.886;2022-10-15T14:53:32;95478.09;;;20.09;59.62
27425;BME280;15244;49.088;11.886;2022-10-15T14:58:37;95467.34;;;20.11;59.51
27425;BME280;15244;49.088;11.886;2022-10-15T15:03:42;95468.88;;;20.12;59.34
27425;BME280;15244;49.088;11.886;2022-10-15T15:08:46;95473.22;;;20.13;59.44
27425;BME280;15244;49.088;11.886;2022-10-15T15:13:48;95466.31;;;20.18;59.44
27425;BME280;15244;49.088;11.886;2022-10-15T15:18:50;95465.91;;;20.28;59.60
27425;BME280;15244;49.088;11.886;2022-10-15T15:23:52;95460.28;;;20.41;59.55
27425;BME280;15244;49.088;11.886;2022-10-15T15:28:54;95465.72;;;20.54;59.50
27425;BME280;15244;49.088;11.886;2022-10-15T15:33:56;95473.31;;;20.63;58.89
27425;BME280;15244;49.088;11.886;2022-10-15T15:38:58;95489.75;;;20.57;58.59
27425;BME280;15244;49.088;11.886;2022-10-15T15:44:00;95480.78;;;20.53;58.46
27425;BME280;15244;49.088;11.886;2022-10-15T15:49:04;95481.38;;;20.48;58.47
27425;BME280;15244;49.088;11.886;2022-10-15T15:54:06;95477.19;;;20.43;58.22
27425;BME280;15244;49.088;11.886;2022-10-15T15:59:10;95476.25;;;20.37;58.26
27425;BME280;15244;49.088;11.886;2022-10-15T16:04:12;95476.06;;;20.31;58.29
27425;BME280;15244;49.088;11.886;2022-10-15T16:09:21;95477.44;;;20.27;58.23
27425;BME280;15244;49.088;11.886;2022-10-15T16:14:24;95480.03;;;20.21;58.11
27425;BME280;15244;49.088;11.886;2022-10-15T16:19:25;95491.22;;;20.18;58.45
27425;BME280;15244;49.088;11.886;2022-10-15T16:24:27;95491.78;;;20.12;58.37
27425;BME280;15244;49.088;11.886;2022-10-15T16:29:29;95497.47;;;20.09;58.54
27425;BME280;15244;49.088;11.886;2022-10-15T16:34:30;95497.63;;;20.05;58.31
27425;BME280;15244;49.088;11.886;2022-10-15T16:39:32;95502.81;;;20.03;58.65
27425;BME280;15244;49.088;11.886;2022-10-15T16:44:34;95514.47;;;19.98;58.44
27425;BME280;15244;49.088;11.886;2022-10-15T16:49:36;95517.34;;;19.95;58.76
27425;BME280;15244;49.088;11.886;2022-10-15T16:54:38;95524.56;;;19.92;58.62
27425;BME280;15244;49.088;11.886;2022-10-15T16:59:40;95526.69;;;19.88;58.73
27425;BME280;15244;49.088;11.886;2022-10-15T17:04:42;95533.09;;;19.85;58.92
27425;BME280;15244;49.088;11.886;2022-10-15T17:09:46;95542.31;;;19.82;59.05
27425;BME280;15244;49.088;11.886;2022-10-15T17:14:53;95546.75;;;19.79;58.79
27425;BME280;15244;49.088;11.886;2022-10-15T17:19:55;95555.94;;;19.76;59.20
27425;BME280;15244;49.088;11.886;2022-10-15T17:24:56;95565.13;;;19.73;59.17
27425;BME280;15244;49.088;11.886;2022-10-15T17:29:58;95572.00;;;19.68;59.02
27425;BME280;15244;49.088;11.886;2022-10-15T17:34:59;95588.38;;;19.63;59.00
27425;BME280;15244;49.088;11.886;2022-10-15T17:40:05;95591.25;;;19.59;59.07
27425;BME280;15244;49.088;11.886;2022-10-15T17:45:09;95595.66;;;19.57;59.27
27425;BME280;15244;49.088;11.886;2022-10-15T17:50:11;95598.22;;;19.51;59.17
27425;BME280;15244;49.088;11.886;2022-10-15T17:55:15;95599.91;;;19.48;59.35
27425;BME280;15244;49.088;11.886;2022-10-15T18:00:17;95608.63;;;19.47;59.08
27425;BME280;15244;49.088;11.886;2022-10-15T18:05:19;95607.97;;;19.43;59.27
27425;BME280;15244;49.088;11.886;2022-10-15T18:10:20;95606.09;;;19.40;59.40
27425;BME280;15244;49.088;11.886;2022-10-15T18:15:22;95615.28;;;19.37;59.49
27425;BME280;15244;49.088;11.886;2022-10-15T18:20:24;95613.72;;;19.36;59.54
27425;BME280;15244;49.088;11.886;2022-10-15T18:25:25;95618.59;;;19.32;59.43
27425;BME280;15244;49.088;11.886;2022-10-15T18:30:27;95619.59;;;19.25;59.50
27425;BME280;15244;49.088;11.886;2022-10-15T18:35:29;95605.03;;;19.24;59.45
27425;BME280;15244;49.088;11.886;2022-10-15T18:40:35;95602.56;;;19.26;59.42
27425;BME280;15244;49.088;11.886;2022-10-15T18:45:41;95602.56;;;19.26;59.35
27425;BME280;15244;49.088;11.886;2022-10-15T18:50:45;95607.66;;;19.28;59.44
27425;BME280;15244;49.088;11.886;2022-10-15T18:55:51;95611.66;;;19.27;59.22
27425;BME280;15244;49.088;11.886;2022-10-15T19:00:54;95612.84;;;19.26;59.16
27425;BME280;15244;49.088;11.886;2022-10-15T19:05:56;95626.66;;;19.26;59.33
27425;BME280;15244;49.088;11.886;2022-10-15T19:11:05;95617.28;;;19.23;59.05
27425;BME280;15244;49.088;11.886;2022-10-15T19:16:07;95622.47;;;19.21;59.40
27425;BME280;15244;49.088;11.886;2022-10-15T19:21:09;95630.44;;;19.19;59.38
27425;BME280;15244;49.088;11.886;2022-10-15T19:26:12;95635.63;;;19.17;59.31
27425;BME280;15244;49.088;11.886;2022-10-15T19:31:22;95631.31;;;19.16;59.11
27425;BME280;15244;49.088;11.886;2022-10-15T19:36:27;95642.06;;;19.14;59.35
27425;BME280;15244;49.088;11.886;2022-10-15T19:41:30;95647.25;;;19.12;59.16
27425;BME280;15244;49.088;11.886;2022-10-15T19:46:31;95643.38;;;19.10;59.26
27425;BME280;15244;49.088;11.886;2022-10-15T19:51:33;95635.50;;;19.08;59.29
27425;BME280;15244;49.088;11.886;2022-10-15T19:56:35;95645.03;;;19.07;59.36
27425;BME280;15244;49.088;11.886;2022-10-15T20:01:37;95648.22;;;19.05;59.38
27425;BME280;15244;49.088;11.886;2022-10-15T20:06:39;95662.94;;;19.02;59.05
27425;BME280;15244;49.088;11.886;2022-10-15T20:11:40;95667.34;;;19.00;59.06
27425;BME280;15244;49.088;11.886;2022-10-15T20:16:45;95682.47;;;18.95;58.98
27425;BME280;15244;49.088;11.886;2022-10-15T20:21:47;95680.59;;;18.92;58.91
27425;BME280;15244;49.088;11.886;2022-10-15T20:26:50;95678.72;;;18.89;58.78
27425;BME280;15244;49.088;11.886;2022-10-15T20:31:53;95675.59;;;18.87;58.86
27425;BME280;15244;49.088;11.886;2022-10-15T20:37:11;95683.97;;;18.83;58.92
27425;BME280;15244;49.088;11.886;2022-10-15T20:42:13;95693.50;;;18.82;58.92
27425;BME280;15244;49.088;11.886;2022-10-15T20:47:15;95695.16;;;18.80;58.87
27425;BME280;15244;49.088;11.886;2022-10-15T20:52:17;95706.63;;;18.78;59.10
27425;BME280;15244;49.088;11.886;2022-10-15T20:57:19;95712.16;;;18.78;59.00
27425;BME280;15244;49.088;11.886;2022-10-15T21:02:21;95716.13;;;18.77;59.06
27425;BME280;15244;49.088;11.886;2022-10-15T21:07:23;95725.63;;;18.76;59.07
27425;BME280;15244;49.088;11.886;2022-10-15T21:12:25;95734.31;;;18.75;59.16
27425;BME280;15244;49.088;11.886;2022-10-15T21:17:28;95730.88;;;18.71;58.97
27425;BME280;15244;49.088;11.886;2022-10-15T21:22:30;95736.50;;;18.67;58.80
27425;BME280;15244;49.088;11.886;2022-10-15T21:27:32;95736.63;;;18.63;59.10
27425;BME280;15244;49.088;11.886;2022-10-15T21:32:34;95739.03;;;18.61;59.06
27425;BME280;15244;49.088;11.886;2022-10-15T21:37:36;95750.06;;;18.61;59.27
27425;BME280;15244;49.088;11.886;2022-10-15T21:42:38;95752.50;;;18.59;59.12
27425;BME280;15244;49.088;11.886;2022-10-15T21:47:40;95767.50;;;18.58;59.12
27425;BME280;15244;49.088;11.886;2022-10-15T21:52:42;95760.41;;;18.57;59.30
27425;BME280;15244;49.088;11.886;2022-10-15T21:57:44;95754.13;;;18.57;59.05
27425;BME280;15244;49.088;11.886;2022-10-15T22:02:49;95762.41;;;18.57;59.31
27425;BME280;15244;49.088;11.886;2022-10-15T22:07:51;95756.47;;;18.58;59.27
27425;BME280;15244;49.088;11.886;2022-10-15T22:12:53;95776.56;;;18.59;59.22
27425;BME280;15244;49.088;11.886;2022-10-15T22:17:55;95780.09;;;18.59;59.21
27425;BME280;15244;49.088;11.886;2022-10-15T22:22:56;95784.84;;;18.59;59.17
27425;BME280;15244;49.088;11.886;2022-10-15T22:27:58;95788.03;;;18.57;59.17
27425;BME280;15244;49.088;11.886;2022-10-15T22:33:00;95783.72;;;18.56;59.12
27425;BME280;15244;49.088;11.886;2022-10-15T22:38:02;95783.72;;;18.56;59.25
27425;BME280;15244;49.088;11.886;2022-10-15T22:43:04;95777.41;;;18.56;59.14
27425;BME280;15244;49.088;11.886;2022-10-15T22:48:07;95781.41;;;18.55;59.26
27425;BME280;15244;49.088;11.886;2022-10-15T22:53:09;95784.16;;;18.55;59.24
27425;BME280;15244;49.088;11.886;2022-10-15T22:58:11;95786.16;;;18.54;59.19
27425;BME280;15244;49.088;11.886;2022-10-15T23:03:12;95788.91;;;18.54;59.40
27425;BME280;15244;49.088;11.886;2022-10-15T23:08:14;95785.81;;;18.52;58.84
27425;BME280;15244;49.088;11.886;2022-10-15T23:13:16;95794.50;;;18.51;59.18
27425;BME280;15244;49.088;11.886;2022-10-15T23:18:17;95787.44;;;18.50;59.05
27425;BME280;15244;49.088;11.886;2022-10-15T23:23:19;95783.91;;;18.49;59.01
27425;BME280;15244;49.088;11.886;2022-10-15T23:28:21;95790.63;;;18.48;59.04
27425;BME280;15244;49.088;11.886;2022-10-15T23:33:23;95792.63;;;18.48;59.17
27425;BME280;15244;49.088;11.886;2022-10-15T23:38:25;95788.31;;;18.47;58.97
27425;BME280;15244;49.088;11.886;2022-10-15T23:43:28;95780.09;;;18.43;59.06
27425;BME280;15244;49.088;11.886;2022-10-15T23:48:31;95788.06;;;18.41;59.16
27425;BME280;15244;49.088;11.886;2022-10-15T23:53:33;95786.16;;;18.38;58.91
27425;BME280;15244;49.088;11.886;2022-10-15T23:58:35;95782.28;;;18.35;59.16
